createdAt,value
2023-03-18T00:00:39.262Z,11.60
2023-03-18T00:03:18.734Z,4.80
2023-03-18T00:05:47.680Z,4.40
2023-03-18T00:08:17.414Z,3.40
2023-03-18T00:10:46.489Z,4.60
2023-03-18T00:13:15.577Z,5.20
2023-03-18T00:15:44.309Z,5.00
2023-03-18T00:18:13.501Z,3.70
2023-03-18T00:20:43.551Z,3.80
2023-03-18T00:23:13.633Z,5.00
2023-03-18T00:25:43.443Z,4.00
2023-03-18T00:28:12.156Z,4.30
2023-03-18T00:30:43.084Z,3.00
2023-03-18T00:33:12.987Z,3.40
2023-03-18T00:35:41.933Z,5.10
2023-03-18T00:38:16.668Z,4.10
2023-03-18T00:40:54.194Z,3.00
2023-03-18T00:43:29.735Z,3.60
2023-03-18T00:45:59.374Z,4.80
2023-03-18T00:48:28.670Z,4.70
2023-03-18T00:50:58.118Z,4.30
2023-03-18T00:53:27.341Z,4.50
2023-03-18T00:55:56.815Z,3.80
2023-03-18T00:58:26.446Z,4.80
2023-03-18T01:00:55.400Z,3.30
2023-03-18T01:03:26.855Z,3.40
2023-03-18T01:05:56.707Z,5.60
2023-03-18T01:08:25.674Z,4.50
2023-03-18T01:10:54.621Z,3.10
2023-03-18T01:13:26.165Z,5.10
2023-03-18T01:15:54.937Z,4.70
2023-03-18T01:18:24.589Z,3.60
2023-03-18T01:20:53.743Z,4.10
2023-03-18T01:23:24.027Z,3.00
2023-03-18T01:25:53.286Z,3.80
2023-03-18T01:28:23.231Z,4.10
2023-03-18T01:30:52.171Z,4.50
2023-03-18T01:33:20.984Z,3.60
2023-03-18T01:35:56.160Z,3.60
2023-03-18T01:38:26.370Z,3.60
2023-03-18T01:40:55.560Z,4.10
2023-03-18T01:43:31.006Z,3.90
2023-03-18T01:46:01.846Z,3.80
2023-03-18T01:48:34.787Z,3.10
2023-03-18T01:51:10.379Z,3.30
2023-03-18T01:53:45.164Z,3.90
2023-03-18T01:56:16.533Z,3.40
2023-03-18T01:58:49.001Z,3.70
2023-03-18T02:01:26.636Z,4.80
2023-03-18T02:03:57.140Z,4.10
2023-03-18T02:06:26.676Z,3.00
2023-03-18T02:08:56.001Z,3.00
2023-03-18T02:11:28.466Z,2.80
2023-03-18T02:13:58.172Z,4.70
2023-03-18T02:16:41.184Z,3.30
2023-03-18T02:19:23.539Z,3.20
2023-03-18T02:22:15.853Z,3.20
2023-03-18T02:24:59.888Z,3.60
2023-03-18T02:27:36.567Z,3.80
2023-03-18T02:30:11.682Z,3.90
2023-03-18T02:32:42.691Z,3.80
2023-03-18T02:35:12.438Z,3.20
2023-03-18T02:37:41.154Z,4.60
2023-03-18T02:40:31.682Z,4.00
2023-03-18T02:43:24.370Z,3.90
2023-03-18T02:46:08.486Z,4.20
2023-03-18T02:48:45.502Z,5.70
2023-03-18T02:51:16.669Z,4.50
2023-03-18T02:53:46.333Z,5.30
2023-03-18T02:56:15.465Z,3.60
2023-03-18T02:58:46.315Z,3.80
2023-03-18T03:01:15.728Z,3.80
2023-03-18T03:03:44.863Z,3.10
2023-03-18T03:06:13.930Z,2.90
2023-03-18T03:08:43.194Z,2.70
2023-03-18T03:11:13.146Z,3.50
2023-03-18T03:13:46.382Z,2.20
2023-03-18T03:16:17.766Z,2.70
2023-03-18T03:18:47.725Z,3.80
2023-03-18T03:21:17.531Z,4.20
2023-03-18T03:23:48.579Z,4.00
2023-03-18T03:26:17.913Z,3.60
2023-03-18T03:28:47.311Z,3.70
2023-03-18T03:31:17.561Z,2.90
2023-03-18T03:33:48.330Z,4.20
2023-03-18T03:36:18.282Z,3.20
2023-03-18T03:38:47.503Z,3.40
2023-03-18T03:41:17.560Z,3.50
2023-03-18T03:43:46.570Z,8.20
2023-03-18T03:46:16.233Z,4.50
2023-03-18T03:48:45.705Z,47.50
2023-03-18T03:51:18.120Z,14.40
2023-03-18T03:53:47.347Z,8.40
2023-03-18T03:56:16.377Z,6.00
2023-03-18T03:58:46.286Z,3.50
2023-03-18T04:01:15.382Z,3.60
2023-03-18T04:03:45.088Z,3.30
2023-03-18T04:06:13.994Z,3.00
2023-03-18T04:08:42.815Z,4.10
2023-03-18T04:11:12.992Z,2.90
2023-03-18T04:13:42.484Z,3.80
2023-03-18T04:16:11.666Z,3.60
2023-03-18T04:18:41.177Z,3.20
2023-03-18T04:21:10.812Z,4.20
2023-03-18T04:23:39.686Z,4.20
2023-03-18T04:26:09.638Z,3.60
2023-03-18T04:28:38.909Z,3.20
2023-03-18T04:31:08.698Z,4.70
2023-03-18T04:33:37.662Z,2.70
2023-03-18T04:36:07.267Z,2.80
2023-03-18T04:38:36.836Z,4.00
2023-03-18T04:41:07.262Z,4.90
2023-03-18T04:43:36.458Z,3.20
2023-03-18T04:46:05.690Z,3.30
2023-03-18T04:48:35.407Z,3.70
2023-03-18T04:51:04.760Z,5.00
2023-03-18T04:53:34.023Z,3.30
2023-03-18T04:56:04.792Z,5.10
2023-03-18T04:58:33.960Z,5.00
2023-03-18T05:01:05.077Z,4.60
2023-03-18T05:03:34.316Z,4.60
2023-03-18T05:06:03.667Z,4.30
2023-03-18T05:08:32.912Z,4.20
2023-03-18T05:11:01.866Z,3.60
2023-03-18T05:13:31.517Z,3.80
2023-03-18T05:16:00.631Z,4.40
2023-03-18T05:18:29.462Z,5.40
2023-03-18T05:20:58.430Z,4.20
2023-03-18T05:23:27.612Z,4.70
2023-03-18T05:25:56.882Z,5.90
2023-03-18T05:28:26.434Z,6.70
2023-03-18T05:30:55.423Z,4.80
2023-03-18T05:33:24.169Z,4.60
2023-03-18T05:35:53.130Z,4.40
2023-03-18T05:38:22.205Z,3.40
2023-03-18T05:40:52.467Z,4.60
2023-03-18T05:43:22.556Z,6.30
2023-03-18T05:45:52.076Z,6.50
2023-03-18T05:48:21.690Z,4.10
2023-03-18T05:50:51.948Z,5.00
2023-03-18T05:53:21.085Z,2.80
2023-03-18T05:55:50.218Z,3.80
2023-03-18T05:58:20.011Z,2.80
2023-03-18T06:00:49.002Z,3.60
2023-03-18T06:03:18.790Z,3.60
2023-03-18T06:05:48.206Z,4.60
2023-03-18T06:08:18.033Z,6.10
2023-03-18T06:10:47.647Z,5.20
2023-03-18T06:13:16.904Z,5.70
2023-03-18T06:15:48.756Z,6.10
2023-03-18T06:18:18.128Z,5.00
2023-03-18T06:20:47.529Z,4.80
2023-03-18T06:23:16.364Z,5.60
2023-03-18T06:25:47.274Z,3.90
2023-03-18T06:28:16.545Z,4.20
2023-03-18T06:30:45.514Z,8.80
2023-03-18T06:33:15.880Z,9.30
2023-03-18T06:35:45.273Z,11.80
2023-03-18T06:38:14.817Z,27.40
2023-03-18T06:40:45.115Z,22.30
2023-03-18T06:43:15.973Z,33.90
2023-03-18T06:45:45.473Z,34.10
2023-03-18T06:48:14.805Z,39.20
2023-03-18T06:50:44.945Z,43.20
2023-03-18T06:53:14.753Z,30.30
2023-03-18T06:55:44.317Z,39.70
2023-03-18T06:58:13.378Z,39.60
2023-03-18T07:00:45.775Z,41.10
2023-03-18T07:03:16.238Z,46.40
2023-03-18T07:05:45.414Z,40.10
2023-03-18T07:08:16.070Z,25.50
2023-03-18T07:10:45.654Z,35.10
2023-03-18T07:13:16.129Z,44.60
2023-03-18T07:15:46.038Z,30.80
2023-03-18T07:18:15.528Z,42.40
2023-03-18T07:20:44.862Z,21.60
2023-03-18T07:23:14.862Z,19.10
2023-03-18T07:25:45.212Z,17.60
2023-03-18T07:28:14.836Z,28.30
2023-03-18T07:30:43.793Z,18.20
2023-03-18T07:33:12.566Z,17.30
2023-03-18T07:35:42.227Z,18.50
2023-03-18T07:38:12.864Z,10.40
2023-03-18T07:40:42.400Z,4.10
2023-03-18T07:43:11.345Z,4.60
2023-03-18T07:45:41.005Z,5.20
2023-03-18T07:48:09.948Z,7.00
2023-03-18T07:50:39.557Z,4.60
2023-03-18T07:53:09.158Z,4.50
2023-03-18T07:55:38.306Z,5.20
2023-03-18T07:58:08.118Z,6.00
2023-03-18T08:00:38.251Z,5.70
2023-03-18T08:03:07.798Z,4.30
2023-03-18T08:05:37.012Z,4.20
2023-03-18T08:08:06.429Z,4.30
2023-03-18T08:10:35.758Z,4.00
2023-03-18T08:13:05.052Z,4.00
2023-03-18T08:15:35.256Z,9.70
2023-03-18T08:18:07.062Z,11.00
2023-03-18T08:20:38.939Z,8.40
2023-03-18T08:23:08.816Z,3.90
2023-03-18T08:25:38.943Z,4.20
2023-03-18T08:28:09.202Z,4.20
2023-03-18T08:30:40.314Z,3.80
2023-03-18T08:33:10.266Z,4.20
2023-03-18T08:35:44.677Z,4.10
2023-03-18T08:38:14.547Z,3.80
2023-03-18T08:40:45.216Z,4.20
2023-03-18T08:43:14.593Z,3.90
2023-03-18T08:45:44.725Z,4.00
2023-03-18T08:48:13.957Z,3.90
2023-03-18T08:50:43.079Z,4.20
2023-03-18T08:53:15.222Z,3.60
2023-03-18T08:55:45.452Z,10.80
2023-03-18T08:58:15.079Z,4.80
2023-03-18T09:00:45.162Z,3.70
2023-03-18T09:03:16.368Z,5.40
2023-03-18T09:05:50.282Z,3.50
2023-03-18T09:08:20.033Z,3.50
2023-03-18T09:10:54.154Z,3.50
2023-03-18T09:13:24.165Z,11.10
2023-03-18T09:15:53.241Z,3.00
2023-03-18T09:18:23.550Z,5.20
2023-03-18T09:20:53.302Z,12.70
2023-03-18T09:23:23.996Z,4.30
2023-03-18T09:25:55.239Z,3.90
2023-03-18T09:28:25.019Z,3.20
2023-03-18T09:30:54.660Z,3.20
2023-03-18T09:33:23.842Z,3.70
2023-03-18T09:35:53.117Z,3.80
2023-03-18T09:38:23.000Z,11.30
2023-03-18T09:41:10.363Z,3.50
2023-03-18T09:43:57.833Z,3.30
2023-03-18T09:46:51.306Z,3.00
2023-03-18T09:49:34.529Z,3.50
2023-03-18T09:52:18.908Z,4.20
2023-03-18T09:55:00.657Z,2.60
2023-03-18T09:57:34.483Z,4.70
2023-03-18T10:00:18.091Z,3.00
2023-03-18T10:03:14.658Z,3.50
2023-03-18T10:05:59.583Z,3.30
2023-03-18T10:08:52.692Z,2.70
2023-03-18T10:11:33.077Z,2.90
2023-03-18T10:14:27.553Z,3.20
2023-03-18T10:17:15.663Z,2.60
2023-03-18T10:20:14.935Z,3.50
2023-03-18T10:23:00.803Z,3.00
2023-03-18T10:25:44.358Z,6.70
2023-03-18T10:28:55.082Z,3.80
2023-03-18T10:31:42.339Z,3.20
2023-03-18T10:34:24.742Z,2.60
2023-03-18T10:37:04.039Z,4.10
2023-03-18T10:39:36.703Z,2.60
2023-03-18T10:42:28.750Z,2.90
2023-03-18T10:45:14.645Z,2.80
2023-03-18T10:47:51.448Z,2.80
2023-03-18T10:50:52.059Z,2.40
2023-03-18T10:54:05.224Z,3.80
2023-03-18T10:56:36.968Z,3.60
2023-03-18T10:59:18.908Z,3.20
2023-03-18T11:01:53.520Z,3.10
2023-03-18T11:04:25.258Z,3.20
2023-03-18T11:07:02.345Z,3.60
2023-03-18T11:09:36.712Z,3.20
2023-03-18T11:12:14.787Z,4.70
2023-03-18T11:14:51.500Z,3.60
2023-03-18T11:17:29.872Z,3.80
2023-03-18T11:20:11.924Z,5.40
2023-03-18T11:22:46.164Z,5.30
2023-03-18T11:25:17.452Z,3.80
2023-03-18T11:27:52.907Z,3.80
2023-03-18T11:30:34.053Z,13.10
2023-03-18T11:33:07.777Z,6.90
2023-03-18T11:35:47.107Z,13.90
2023-03-18T11:38:19.558Z,5.80
2023-03-18T11:40:49.061Z,5.90
2023-03-18T11:43:24.006Z,5.20
2023-03-18T11:46:05.143Z,4.70
2023-03-18T11:48:37.421Z,3.50
2023-03-18T11:51:18.140Z,4.00
2023-03-18T11:54:19.823Z,4.90
2023-03-18T11:56:53.079Z,3.80
2023-03-18T11:59:53.366Z,3.70
2023-03-18T12:02:50.942Z,4.30
2023-03-18T12:05:33.022Z,10.00
2023-03-18T12:08:11.181Z,3.70
2023-03-18T12:10:48.857Z,4.20
2023-03-18T12:13:32.385Z,23.60
2023-03-18T12:16:21.390Z,17.60
2023-03-18T12:18:53.686Z,4.10
2023-03-18T12:22:00.928Z,57.70
2023-03-18T12:24:48.979Z,4.50
2023-03-18T12:27:46.839Z,3.90
2023-03-18T12:30:44.320Z,3.50
2023-03-18T12:33:20.005Z,26.30
2023-03-18T12:36:14.811Z,5.20
2023-03-18T12:38:53.910Z,4.40
2023-03-18T12:41:32.571Z,4.30
2023-03-18T12:44:10.689Z,9.40
2023-03-18T12:46:56.125Z,10.90
2023-03-18T12:50:03.821Z,9.50
2023-03-18T12:52:47.122Z,7.80
2023-03-18T12:55:37.632Z,4.10
2023-03-18T12:58:19.598Z,3.20
2023-03-18T13:00:59.958Z,8.90
2023-03-18T13:03:40.653Z,4.00
2023-03-18T13:06:19.433Z,3.20
2023-03-18T13:09:02.352Z,3.80
2023-03-18T13:11:56.769Z,12.70
2023-03-18T13:14:50.465Z,5.00
2023-03-18T13:17:34.433Z,2.50
2023-03-18T13:20:31.759Z,2.80
2023-03-18T13:23:10.397Z,9.40
2023-03-18T13:26:17.018Z,7.20
2023-03-18T13:29:14.785Z,2.90
2023-03-18T13:32:03.764Z,4.30
2023-03-18T13:34:36.758Z,2.30
2023-03-18T13:37:30.001Z,3.60
2023-03-18T13:40:18.710Z,2.50
2023-03-18T13:42:50.102Z,4.40
2023-03-18T13:45:33.241Z,2.80
2023-03-18T13:48:12.098Z,2.60
2023-03-18T13:50:43.849Z,2.50
2023-03-18T13:53:25.776Z,4.90
2023-03-18T13:56:01.418Z,8.60
2023-03-18T13:58:45.456Z,6.80
2023-03-18T14:01:30.680Z,10.10
2023-03-18T14:04:21.261Z,3.70
2023-03-18T14:07:13.644Z,3.70
2023-03-18T14:10:00.341Z,2.60
2023-03-18T14:12:35.646Z,4.30
2023-03-18T14:15:13.508Z,6.10
2023-03-18T14:18:07.926Z,6.50
2023-03-18T14:20:40.581Z,18.80
2023-03-18T14:23:30.319Z,2.70
2023-03-18T14:26:24.135Z,3.20
2023-03-18T14:29:05.804Z,6.50
2023-03-18T14:31:40.711Z,14.30
2023-03-18T14:34:18.577Z,3.30
2023-03-18T14:36:53.978Z,3.40
2023-03-18T14:39:49.284Z,3.10
2023-03-18T14:42:44.726Z,10.80
2023-03-18T14:45:16.429Z,3.60
2023-03-18T14:47:51.172Z,4.80
2023-03-18T14:50:41.705Z,16.80
2023-03-18T14:53:26.109Z,5.60
2023-03-18T14:55:59.662Z,14.30
2023-03-18T14:58:29.553Z,12.50
2023-03-18T15:01:12.066Z,7.70
2023-03-18T15:03:45.314Z,10.20
2023-03-18T15:06:22.442Z,2.80
2023-03-18T15:09:02.402Z,4.40
2023-03-18T15:11:40.041Z,3.40
2023-03-18T15:14:22.299Z,10.00
2023-03-18T15:16:54.658Z,12.70
2023-03-18T15:19:27.239Z,3.00
2023-03-18T15:22:06.842Z,3.10
2023-03-18T15:24:36.513Z,3.00
2023-03-18T15:27:14.085Z,3.10
2023-03-18T15:29:54.140Z,2.40
2023-03-18T15:32:29.937Z,2.80
2023-03-18T15:35:17.167Z,3.40
2023-03-18T15:37:48.665Z,3.10
2023-03-18T15:40:31.519Z,3.40
2023-03-18T15:43:50.532Z,2.40
2023-03-18T15:46:33.924Z,4.00
2023-03-18T15:49:06.494Z,3.10
2023-03-18T15:51:48.580Z,2.80
2023-03-18T15:54:19.865Z,2.50
2023-03-18T15:56:50.698Z,3.30
2023-03-18T15:59:30.347Z,3.00
2023-03-18T16:02:01.478Z,5.90
2023-03-18T16:04:33.234Z,3.40
2023-03-18T16:07:02.577Z,3.40
2023-03-18T16:09:35.416Z,2.60
2023-03-18T16:12:13.787Z,2.90
2023-03-18T16:14:46.609Z,4.40
2023-03-18T16:17:21.574Z,3.80
2023-03-18T16:19:55.727Z,2.20
2023-03-18T16:22:24.904Z,2.60
2023-03-18T16:24:54.208Z,3.60
2023-03-18T16:27:38.957Z,2.20
2023-03-18T16:30:21.191Z,3.80
2023-03-18T16:32:52.229Z,2.90
2023-03-18T16:35:33.428Z,3.40
2023-03-18T16:38:03.082Z,6.70
2023-03-18T16:40:33.001Z,3.60
2023-03-18T16:43:02.683Z,2.90
2023-03-18T16:45:34.381Z,3.60
2023-03-18T16:48:07.336Z,3.80
2023-03-18T16:50:41.986Z,2.70
2023-03-18T16:53:22.013Z,3.90
2023-03-18T16:55:54.608Z,3.30
2023-03-18T16:58:35.905Z,4.20
2023-03-18T17:01:09.155Z,3.50
2023-03-18T17:03:38.086Z,3.00
2023-03-18T17:06:09.289Z,4.20
2023-03-18T17:08:38.919Z,3.40
2023-03-18T17:11:07.962Z,3.20
2023-03-18T17:13:39.043Z,4.00
2023-03-18T17:16:19.276Z,3.40
2023-03-18T17:18:48.877Z,6.30
2023-03-18T17:21:18.324Z,4.50
2023-03-18T17:23:49.438Z,3.20
2023-03-18T17:26:23.410Z,3.70
2023-03-18T17:28:54.810Z,4.50
2023-03-18T17:31:24.037Z,4.00
2023-03-18T17:33:53.160Z,3.20
2023-03-18T17:36:22.328Z,3.90
2023-03-18T17:38:57.258Z,3.40
2023-03-18T17:41:27.849Z,2.90
2023-03-18T17:43:57.105Z,12.50
2023-03-18T17:46:26.717Z,5.90
2023-03-18T17:48:56.988Z,5.00
2023-03-18T17:51:27.987Z,2.70
2023-03-18T17:54:00.155Z,7.00
2023-03-18T17:56:31.252Z,7.70
2023-03-18T17:59:01.554Z,4.60
2023-03-18T18:01:31.537Z,13.70
2023-03-18T18:04:02.337Z,6.40
2023-03-18T18:06:34.383Z,4.80
2023-03-18T18:09:05.179Z,5.10
2023-03-18T18:11:45.347Z,7.90
2023-03-18T18:14:29.299Z,4.70
2023-03-18T18:16:58.773Z,6.30
2023-03-18T18:19:29.740Z,8.40
2023-03-18T18:22:01.683Z,3.40
2023-03-18T18:24:35.616Z,5.70
2023-03-18T18:27:04.993Z,7.10
2023-03-18T18:29:35.319Z,6.00
2023-03-18T18:32:04.920Z,7.50
2023-03-18T18:34:34.116Z,5.80
2023-03-18T18:37:03.464Z,8.60
2023-03-18T18:39:32.352Z,9.10
2023-03-18T18:42:01.488Z,9.10
2023-03-18T18:44:30.768Z,13.10
2023-03-18T18:47:01.361Z,11.80
2023-03-18T18:49:30.832Z,6.70
2023-03-18T18:52:00.751Z,7.50
2023-03-18T18:54:29.994Z,7.70
2023-03-18T18:56:59.293Z,6.00
2023-03-18T18:59:32.765Z,5.70
2023-03-18T19:02:03.949Z,6.40
2023-03-18T19:04:33.658Z,6.50
2023-03-18T19:07:07.188Z,7.40
2023-03-18T19:09:37.085Z,6.50
2023-03-18T19:12:15.393Z,8.70
2023-03-18T19:14:44.878Z,4.80
2023-03-18T19:17:23.342Z,5.70
2023-03-18T19:19:54.040Z,4.00
2023-03-18T19:22:23.845Z,5.20
2023-03-18T19:24:53.199Z,3.40
2023-03-18T19:27:27.372Z,6.80
2023-03-18T19:29:59.522Z,4.30
2023-03-18T19:32:29.588Z,5.70
2023-03-18T19:34:59.203Z,5.70
2023-03-18T19:37:32.810Z,6.70
2023-03-18T19:40:15.487Z,4.70
2023-03-18T19:42:44.910Z,4.70
2023-03-18T19:45:15.723Z,4.10
2023-03-18T19:47:46.908Z,4.10
2023-03-18T19:50:22.806Z,4.90
2023-03-18T19:52:53.630Z,4.40
2023-03-18T19:55:24.473Z,3.80
2023-03-18T19:57:54.914Z,4.10
2023-03-18T20:00:26.236Z,4.40
2023-03-18T20:02:56.131Z,5.20
2023-03-18T20:05:26.600Z,7.60
2023-03-18T20:07:55.987Z,9.40
2023-03-18T20:10:25.806Z,11.00
2023-03-18T20:12:55.138Z,9.10
2023-03-18T20:15:27.779Z,4.40
2023-03-18T20:18:01.351Z,6.60
2023-03-18T20:20:34.269Z,4.80
2023-03-18T20:23:06.837Z,7.60
2023-03-18T20:25:41.465Z,15.90
2023-03-18T20:28:21.140Z,9.40
2023-03-18T20:30:53.470Z,11.80
2023-03-18T20:33:23.887Z,8.30
2023-03-18T20:35:55.043Z,9.40
2023-03-18T20:38:39.847Z,6.90
2023-03-18T20:41:16.992Z,6.00
2023-03-18T20:43:49.776Z,9.90
2023-03-18T20:46:19.994Z,7.30
2023-03-18T20:48:50.818Z,3.50
2023-03-18T20:51:31.761Z,5.20
2023-03-18T20:54:01.348Z,11.40
2023-03-18T20:56:33.489Z,6.90
2023-03-18T20:59:04.790Z,5.70
2023-03-18T21:01:34.647Z,5.70
2023-03-18T21:04:05.133Z,20.90
2023-03-18T21:06:34.694Z,30.80
2023-03-18T21:09:05.164Z,5.30
2023-03-18T21:11:34.468Z,4.50
2023-03-18T21:14:05.470Z,4.80
2023-03-18T21:16:37.771Z,4.40
2023-03-18T21:19:07.677Z,5.30
2023-03-18T21:21:41.517Z,5.00
2023-03-18T21:24:28.193Z,5.10
2023-03-18T21:27:04.715Z,4.70
2023-03-18T21:29:34.664Z,6.30
2023-03-18T21:32:03.854Z,4.60
2023-03-18T21:34:33.532Z,5.70
2023-03-18T21:37:02.808Z,5.30
2023-03-18T21:39:32.636Z,4.90
2023-03-18T21:42:01.814Z,4.50
2023-03-18T21:44:30.871Z,4.10
2023-03-18T21:47:00.004Z,4.70
2023-03-18T21:49:29.269Z,5.80
2023-03-18T21:51:58.451Z,5.70
2023-03-18T21:54:27.699Z,10.70
2023-03-18T21:56:57.173Z,7.50
2023-03-18T21:59:27.536Z,5.80
2023-03-18T22:01:57.083Z,12.00
2023-03-18T22:04:26.145Z,9.20
2023-03-18T22:06:55.977Z,11.00
2023-03-18T22:09:27.232Z,15.50
2023-03-18T22:11:56.457Z,7.90
2023-03-18T22:14:25.844Z,6.00
2023-03-18T22:16:55.334Z,6.60
2023-03-18T22:19:24.143Z,6.90
2023-03-18T22:21:54.085Z,5.80
2023-03-18T22:24:23.144Z,3.90
2023-03-18T22:26:52.353Z,6.10
2023-03-18T22:29:24.619Z,6.00
2023-03-18T22:31:54.461Z,6.70
2023-03-18T22:34:24.480Z,5.20
2023-03-18T22:36:53.666Z,4.40
2023-03-18T22:39:23.225Z,5.30
2023-03-18T22:41:52.674Z,4.80
2023-03-18T22:44:25.202Z,3.40
2023-03-18T22:46:54.764Z,4.30
2023-03-18T22:49:23.788Z,4.10
2023-03-18T22:51:53.443Z,4.70
2023-03-18T22:54:25.192Z,4.40
2023-03-18T22:56:54.530Z,4.30
2023-03-18T22:59:23.367Z,3.90
2023-03-18T23:01:53.158Z,5.70
2023-03-18T23:04:22.360Z,5.60
2023-03-18T23:06:52.934Z,5.00
2023-03-18T23:09:21.835Z,4.30
2023-03-18T23:11:51.072Z,5.50
2023-03-18T23:14:20.387Z,6.00
2023-03-18T23:16:49.623Z,7.80
2023-03-18T23:19:19.326Z,5.80
2023-03-18T23:21:48.434Z,5.20
2023-03-18T23:24:17.575Z,3.70
2023-03-18T23:26:47.476Z,4.30
2023-03-18T23:29:17.258Z,5.50
2023-03-18T23:31:46.750Z,4.70
2023-03-18T23:34:15.899Z,3.90
2023-03-18T23:36:44.923Z,4.60
2023-03-18T23:39:13.935Z,7.30
2023-03-18T23:41:42.704Z,4.50
2023-03-18T23:44:11.974Z,6.00
2023-03-18T23:46:42.610Z,5.70
2023-03-18T23:49:13.439Z,5.10
2023-03-18T23:51:42.466Z,5.10
2023-03-18T23:54:11.779Z,6.70
2023-03-18T23:56:40.961Z,4.80
2023-03-18T23:59:10.959Z,4.20
